Time;durP1;ratioP1;P1;durP2;ratioP2;P2;SDS_P1;SDS_P2;PMS_P1;PMS_P2;Temp;Humidity;BMP_temperature;BMP_pressure;BME280_temperature;BME280_humidity;BME280_pressure;Samples;Min_cycle;Max_cycle;Signal;HPM_P1;HPM_P2
2022/11/09 00:00:44;;;;;;;2.28;1.08;;;;;;;-145.69;86.10;52388.94;5134481;27;20193;-83
2022/11/09 00:03:14;;;;;;;6.25;1.20;;;;;;;-145.69;86.70;52381.00;5134185;27;20196;-82
2022/11/09 00:05:42;;;;;;;3.80;1.40;;;;;;;-145.69;86.88;52381.00;5134515;27;20658;-82
2022/11/09 00:08:10;;;;;;;2.50;1.42;;;;;;;-145.69;89.12;52363.19;5134963;27;20253;-82
2022/11/09 00:10:38;;;;;;;4.93;1.10;;;;;;;-145.69;89.69;52347.34;5135396;27;20203;-83
2022/11/09 00:13:05;;;;;;;3.63;1.30;;;;;;;-145.69;89.71;52392.91;5134697;28;20209;-82
2022/11/09 00:15:31;;;;;;;2.63;1.35;;;;;;;-145.69;90.33;52363.19;5133740;27;20199;-83
2022/11/09 00:18:00;;;;;;;3.88;1.70;;;;;;;-145.69;89.94;52355.28;5123783;27;20281;-83
2022/11/09 00:20:27;;;;;;;2.95;1.30;;;;;;;-145.69;91.85;52402.78;5113086;28;20224;-83
2022/11/09 00:22:54;;;;;;;3.55;1.52;;;;;;;-145.69;92.39;52396.84;5122362;28;20650;-82
2022/11/09 00:25:21;;;;;;;4.82;1.27;;;;;;;-145.69;92.60;52357.25;5133946;27;20200;-83
2022/11/09 00:27:47;;;;;;;1.85;1.20;;;;;;;-145.69;91.44;52377.06;5133604;27;20193;-83
2022/11/09 00:30:17;;;;;;;5.65;1.35;;;;;;;-145.69;92.67;52377.06;5133659;27;20674;-83
2022/11/09 00:32:44;;;;;;;3.60;1.27;;;;;;;-145.69;94.88;52412.69;5133445;27;20201;-82
2022/11/09 00:35:10;;;;;;;3.65;1.42;;;;;;;-145.69;96.96;52361.22;5133728;27;20722;-82
2022/11/09 00:37:37;;;;;;;3.08;1.25;;;;;;;-145.69;92.88;52365.16;5134065;28;20224;-83
2022/11/09 00:40:06;;;;;;;2.72;1.20;;;;;;;-145.69;94.02;52394.88;5133702;28;20686;-83
2022/11/09 00:42:32;;;;;;;2.25;1.25;;;;;;;-145.69;92.44;52377.06;5133757;27;20199;-82
2022/11/09 00:44:59;;;;;;;3.78;1.25;;;;;;;-145.69;92.20;52404.78;5137457;27;20224;-82
2022/11/09 00:47:28;;;;;;;3.15;1.60;;;;;;;-145.69;92.66;52379.03;5137899;27;20201;-82
2022/11/09 00:49:55;;;;;;;4.55;1.38;;;;;;;-145.69;91.32;52345.38;5137746;27;20570;-83
2022/11/09 00:52:22;;;;;;;3.70;1.10;;;;;;;-145.69;90.52;52341.41;5138230;27;20283;-82
2022/11/09 00:54:48;;;;;;;2.10;1.25;;;;;;;-145.69;87.02;52373.09;5138367;27;20669;-82
2022/11/09 00:57:16;;;;;;;2.67;1.25;;;;;;;-145.69;93.02;52388.94;5137427;27;20263;-83
2022/11/09 00:59:43;;;;;;;4.07;1.33;;;;;;;-145.69;90.38;52396.84;5137381;27;20193;-82
2022/11/09 01:02:09;;;;;;;2.85;1.38;;;;;;;-145.69;88.49;52386.97;5137437;27;20193;-83
2022/11/09 01:04:36;;;;;;;2.65;1.15;;;;;;;-145.69;90.25;52363.19;5137350;27;20197;-83
2022/11/09 01:07:03;;;;;;;2.22;1.13;;;;;;;-145.69;93.36;52396.84;5137309;27;20192;-82
2022/11/09 01:09:32;;;;;;;1.58;1.10;;;;;;;-145.69;93.28;52363.19;5137031;27;20200;-82
2022/11/09 01:11:58;;;;;;;3.15;1.08;;;;;;;-145.69;92.77;52371.13;5137018;27;20286;-82
2022/11/09 01:14:26;;;;;;;4.72;1.35;;;;;;;-145.69;94.73;52365.16;5137370;27;20189;-81
2022/11/09 01:16:53;;;;;;;1.77;0.98;;;;;;;-145.69;96.77;52377.06;5137792;27;21477;-81
2022/11/09 01:19:19;;;;;;;2.95;1.40;;;;;;;-145.69;95.66;52369.13;5138926;27;20211;-81
2022/11/09 01:21:46;;;;;;;4.13;1.17;;;;;;;-145.69;95.35;52383.00;5138278;27;20674;-82
2022/11/09 01:24:12;;;;;;;3.85;1.60;;;;;;;-145.69;97.88;52381.00;5138013;27;20367;-82
2022/11/09 01:26:39;;;;;;;5.55;1.20;;;;;;;-145.69;97.01;52392.91;5131081;27;20205;-81
2022/11/09 01:29:05;;;;;;;1.70;1.20;;;;;;;-145.69;99.12;52402.78;5118779;28;20568;-81
2022/11/09 01:31:33;;;;;;;2.67;1.27;;;;;;;-145.69;98.01;52371.13;5124541;27;20249;-81
2022/11/09 01:34:00;;;;;;;3.58;1.23;;;;;;;-145.69;99.41;52416.66;5137336;27;20224;-81
2022/11/09 01:36:31;;;;;;;4.13;1.20;;;;;;;-145.69;99.07;52396.84;5137387;27;20221;-82
2022/11/09 01:38:58;;;;;;;1.25;1.00;;;;;;;-145.69;98.02;52377.06;5138745;27;20651;-81
2022/11/09 01:41:28;;;;;;;3.95;1.55;;;;;;;-145.69;96.36;52359.22;5138401;27;20207;-81
2022/11/09 01:44:07;;;;;;;6.57;1.42;;;;;;;-145.69;96.76;52410.72;5137575;27;20562;-81
2022/11/09 01:46:40;;;;;;;2.80;1.00;;;;;;;-145.69;98.81;52400.81;5138284;27;20215;-81
2022/11/09 01:49:14;;;;;;;3.72;1.30;;;;;;;-145.69;100.00;52400.81;5138892;27;20199;-81
2022/11/09 01:51:45;;;;;;;2.67;0.95;;;;;;;-145.69;100.00;52406.75;5137861;27;20201;-82
2022/11/09 01:54:19;;;;;;;1.95;1.10;;;;;;;-145.69;100.00;52367.16;5136827;27;20222;-82
2022/11/09 01:56:48;;;;;;;5.22;1.20;;;;;;;-145.69;96.25;52383.00;5136369;27;20643;-82
2022/11/09 01:59:19;;;;;;;2.13;1.38;;;;;;;-145.69;100.00;52390.91;5136546;27;20284;-82
2022/11/09 02:01:49;;;;;;;2.92;1.20;;;;;;;-145.69;100.00;52388.94;5136442;27;20230;-82
2022/11/09 02:04:20;;;;;;;3.80;1.48;;;;;;;-145.69;100.00;52396.84;5136325;27;20197;-82
2022/11/09 02:06:48;;;;;;;3.78;1.40;;;;;;;-145.69;100.00;52398.84;5136430;27;20547;-82
2022/11/09 02:09:22;;;;;;;5.18;1.50;;;;;;;-145.69;100.00;52383.00;5123778;27;20566;-82
2022/11/09 02:11:49;;;;;;;3.20;1.20;;;;;;;-145.69;100.00;52400.81;5116819;27;20208;-82
2022/11/09 02:14:20;;;;;;;2.55;1.23;;;;;;;-145.69;100.00;52408.75;5136238;27;20669;-82
2022/11/09 02:16:48;;;;;;;4.07;1.43;;;;;;;-145.69;100.00;52436.47;5135912;27;20220;-82
2022/11/09 02:19:15;;;;;;;2.15;1.30;;;;;;;-145.69;100.00;52392.91;5135668;27;20224;-82
2022/11/09 02:21:46;;;;;;;2.58;1.25;;;;;;;-145.69;100.00;52371.13;5135889;27;20208;-82
2022/11/09 02:24:13;;;;;;;1.65;1.00;;;;;;;-145.69;100.00;52373.09;5135878;27;20205;-82
2022/11/09 02:26:45;;;;;;;4.82;1.20;;;;;;;-145.69;100.00;52345.38;5136118;27;20197;-82
2022/11/09 02:29:15;;;;;;;4.10;1.33;;;;;;;-145.69;100.00;52402.78;5136019;27;20291;-82
2022/11/09 02:31:46;;;;;;;2.20;1.02;;;;;;;-145.69;100.00;52388.94;5135298;27;20208;-82
2022/11/09 02:34:16;;;;;;;5.00;1.65;;;;;;;-145.69;98.08;52400.81;5134710;27;20690;-82
2022/11/09 02:36:44;;;;;;;1.83;1.13;;;;;;;-145.69;97.42;52416.66;5135567;27;20266;-82
2022/11/09 02:39:11;;;;;;;2.40;1.02;;;;;;;-145.69;98.26;52416.66;5135300;27;20276;-82
2022/11/09 02:41:45;;;;;;;2.03;1.10;;;;;;;-145.69;100.00;52406.75;5135348;27;20200;-82
2022/11/09 02:44:13;;;;;;;1.33;0.95;;;;;;;-145.69;100.00;52398.84;5134708;27;20669;-82
2022/11/09 02:46:40;;;;;;;2.33;1.00;;;;;;;-145.69;100.00;52386.97;5134999;27;20203;-82
2022/11/09 02:49:06;;;;;;;1.45;1.10;;;;;;;-145.69;100.00;52400.81;5135181;27;20201;-82
2022/11/09 02:51:33;;;;;;;1.80;1.20;;;;;;;-145.69;100.00;52390.91;5135010;27;20196;-83
2022/11/09 02:54:01;;;;;;;1.98;1.35;;;;;;;-145.69;100.00;52365.16;5135338;27;20201;-82
2022/11/09 02:56:27;;;;;;;2.25;1.20;;;;;;;-145.69;100.00;52377.06;5134480;27;20227;-82
2022/11/09 02:58:54;;;;;;;2.00;1.15;;;;;;;-145.69;100.00;52375.06;5135330;27;20200;-83
2022/11/09 03:01:20;;;;;;;3.30;1.30;;;;;;;-145.69;98.36;52398.84;5135056;27;20197;-83
2022/11/09 03:03:47;;;;;;;2.15;1.40;;;;;;;-145.69;100.00;52383.00;5134854;27;20197;-83
2022/11/09 03:06:14;;;;;;;2.67;1.10;;;;;;;-145.69;98.33;52420.63;5134413;27;20204;-82
2022/11/09 03:08:40;;;;;;;2.97;1.17;;;;;;;-145.69;99.75;52400.81;5134871;27;20199;-83
2022/11/09 03:11:11;;;;;;;1.85;0.90;;;;;;;-145.69;98.26;52388.94;5135248;27;20220;-82
2022/11/09 03:13:37;;;;;;;3.58;1.38;;;;;;;-145.69;97.61;52381.00;5134928;27;20291;-82
2022/11/09 03:16:05;;;;;;;1.98;1.17;;;;;;;-145.69;97.47;52384.97;5135433;27;20356;-82
2022/11/09 03:18:32;;;;;;;2.60;1.20;;;;;;;-145.69;100.00;52384.97;5136129;27;20225;-81
2022/11/09 03:21:01;;;;;;;1.73;1.27;;;;;;;-145.69;100.00;52373.09;5134698;27;20641;-82
2022/11/09 03:23:28;;;;;;;2.20;1.10;;;;;;;-145.69;100.00;52412.69;5134437;27;20566;-81
2022/11/09 03:25:54;;;;;;;3.28;1.25;;;;;;;-145.69;100.00;52383.00;5134493;27;20197;-82
2022/11/09 03:28:26;;;;;;;3.80;1.65;;;;;;;-145.69;100.00;52388.94;5134999;27;20201;-82
2022/11/09 03:30:52;;;;;;;3.60;1.42;;;;;;;-145.69;100.00;52400.81;5135158;27;20201;-81
2022/11/09 03:33:19;;;;;;;2.00;1.10;;;;;;;-145.69;100.00;52412.69;5136627;27;20710;-81
2022/11/09 03:35:46;;;;;;;4.20;1.60;;;;;;;-145.69;100.00;52392.91;5136338;27;20204;-81
2022/11/09 03:38:13;;;;;;;2.67;1.50;;;;;;;-145.69;100.00;52424.59;5136211;27;20329;-80
2022/11/09 03:40:39;;;;;;;3.35;1.48;;;;;;;-145.69;100.00;52392.91;5135942;27;20208;-80
2022/11/09 03:43:06;;;;;;;3.73;1.47;;;;;;;-145.69;100.00;52392.91;5135992;27;20203;-81
2022/11/09 03:45:34;;;;;;;5.50;1.37;;;;;;;-145.69;100.00;52402.78;5135210;27;20215;-82
2022/11/09 03:48:00;;;;;;;6.53;1.70;;;;;;;-145.69;100.00;52464.19;5134743;27;20196;-81
2022/11/09 03:50:29;;;;;;;2.90;1.40;;;;;;;-145.69;100.00;52420.63;5135175;27;20189;-81
2022/11/09 03:52:55;;;;;;;2.20;1.40;;;;;;;-145.69;100.00;52440.44;5134997;27;20196;-80
2022/11/09 03:55:26;;;;;;;3.63;1.70;;;;;;;-145.69;100.00;52412.69;5135140;27;20215;-81
2022/11/09 03:57:52;;;;;;;3.83;1.33;;;;;;;-145.69;100.00;52416.66;5134667;27;20227;-80
2022/11/09 04:00:21;;;;;;;5.27;1.87;;;;;;;-145.69;100.00;52428.53;5135208;27;20205;-80
2022/11/09 04:02:49;;;;;;;5.70;1.73;;;;;;;-145.69;100.00;52446.38;5116939;27;20197;-80
2022/11/09 04:05:15;;;;;;;3.40;1.60;;;;;;;-145.69;100.00;52392.91;5113872;28;20288;-80
2022/11/09 04:07:47;;;;;;;3.13;1.63;;;;;;;-145.69;100.00;52426.56;5114296;28;20205;-80
2022/11/09 04:10:14;;;;;;;3.43;1.60;;;;;;;-145.69;100.00;52432.50;5123316;27;20312;-80
2022/11/09 04:12:43;;;;;;;2.80;2.10;;;;;;;-145.69;100.00;52458.25;5135112;27;20220;-79
2022/11/09 04:15:11;;;;;;;3.90;1.80;;;;;;;-145.69;100.00;52428.53;5134421;28;20201;-79
2022/11/09 04:17:40;;;;;;;5.13;2.00;;;;;;;-145.69;100.00;52420.63;5134560;27;20235;-79
2022/11/09 04:20:09;;;;;;;2.17;1.50;;;;;;;-145.69;100.00;52468.16;5138261;27;20189;-79
2022/11/09 04:22:36;;;;;;;3.70;1.90;;;;;;;-145.69;100.00;52474.09;5141071;27;20199;-80
2022/11/09 04:25:05;;;;;;;6.73;1.83;;;;;;;-145.69;100.00;52432.50;5140746;27;20685;-79
2022/11/09 04:27:31;;;;;;;3.93;1.90;;;;;;;-145.69;100.00;52428.53;5139243;27;20200;-80
2022/11/09 04:29:59;;;;;;;4.77;1.87;;;;;;;-145.69;100.00;52434.47;5139888;27;20206;-80
2022/11/09 04:32:26;;;;;;;3.20;2.33;;;;;;;-145.69;100.00;52432.50;5140229;27;20210;-79
2022/11/09 04:34:52;;;;;;;6.60;2.23;;;;;;;-145.69;100.00;52444.38;5138039;27;20820;-79
2022/11/09 04:37:20;;;;;;;5.57;2.13;;;;;;;-145.69;100.00;52444.38;5141760;27;20229;-80
2022/11/09 04:39:47;;;;;;;7.60;1.93;;;;;;;-145.69;100.00;52452.31;5140221;27;20245;-80
2022/11/09 04:42:13;;;;;;;6.03;2.17;;;;;;;-145.69;100.00;52444.38;5137497;27;20200;-79
2022/11/09 04:44:40;;;;;;;5.13;2.57;;;;;;;-145.69;100.00;52452.31;5138094;27;20207;-80
2022/11/09 04:47:06;;;;;;;4.63;2.20;;;;;;;-145.69;100.00;52493.91;5138236;27;20656;-79
2022/11/09 04:49:33;;;;;;;4.20;2.30;;;;;;;-145.69;100.00;52420.63;5138574;27;20196;-79
2022/11/09 04:51:59;;;;;;;10.30;2.33;;;;;;;-145.69;100.00;52444.38;5138430;27;20203;-79
2022/11/09 04:54:30;;;;;;;5.80;2.40;;;;;;;-145.69;100.00;52434.47;5139342;27;20292;-79
2022/11/09 04:56:58;;;;;;;4.43;2.70;;;;;;;-145.69;100.00;52434.47;5142038;27;20201;-80
2022/11/09 04:59:24;;;;;;;5.77;2.57;;;;;;;-145.69;100.00;52454.28;5140142;27;20196;-79
2022/11/09 05:01:51;;;;;;;7.77;2.53;;;;;;;-145.69;100.00;52480.03;5138878;27;20192;-79
2022/11/09 05:04:17;;;;;;;3.97;2.53;;;;;;;-145.69;100.00;52452.31;5138716;27;20197;-79
2022/11/09 05:06:44;;;;;;;5.13;2.57;;;;;;;-145.69;100.00;52454.28;5140924;27;20212;-79
2022/11/09 05:09:10;;;;;;;8.43;2.40;;;;;;;-145.69;100.00;52414.69;5137223;27;20563;-78
2022/11/09 05:11:38;;;;;;;4.43;2.57;;;;;;;-145.69;100.00;52460.22;5137428;27;20214;-79
2022/11/09 05:14:05;;;;;;;9.47;3.17;;;;;;;-145.69;100.00;52472.13;5138717;27;20199;-79
2022/11/09 05:16:34;;;;;;;7.17;3.10;;;;;;;-145.69;100.00;52426.56;5138223;27;20218;-79
2022/11/09 05:19:00;;;;;;;7.53;2.47;;;;;;;-145.69;100.00;52478.06;5137691;27;20686;-79
2022/11/09 05:21:27;;;;;;;7.03;2.93;;;;;;;-145.69;100.00;52464.19;5138006;27;20254;-79
2022/11/09 05:23:58;;;;;;;7.77;3.00;;;;;;;-145.69;100.00;52470.13;5138126;27;20227;-79
2022/11/09 05:26:26;;;;;;;6.37;2.80;;;;;;;-145.69;100.00;52450.31;5137515;27;20204;-79
2022/11/09 05:28:56;;;;;;;6.17;2.50;;;;;;;-145.69;100.00;52460.22;5139159;27;20208;-79
2022/11/09 05:31:25;;;;;;;5.47;2.90;;;;;;;-145.69;100.00;52472.13;5140856;27;20418;-79
2022/11/09 05:33:55;;;;;;;2.97;2.20;;;;;;;-145.69;100.00;52480.03;5140405;27;20228;-80
2022/11/09 05:36:22;;;;;;;4.63;2.20;;;;;;;-145.69;100.00;52478.06;5138638;27;20192;-80
2022/11/09 05:38:48;;;;;;;5.60;2.10;;;;;;;-145.69;100.00;52460.22;5139924;27;20224;-80
2022/11/09 05:41:16;;;;;;;7.57;2.50;;;;;;;-145.69;100.00;52470.13;5139251;27;20196;-80
2022/11/09 05:43:44;;;;;;;5.50;2.50;;;;;;;-145.69;100.00;52474.09;5138150;27;20200;-80
2022/11/09 05:46:13;;;;;;;2.67;1.90;;;;;;;-145.69;100.00;52487.97;5137568;27;20556;-80
2022/11/09 05:48:43;;;;;;;4.07;2.50;;;;;;;-145.69;100.00;52468.16;5136951;27;20207;-81
2022/11/09 05:51:11;;;;;;;2.57;1.97;;;;;;;-145.69;100.00;52464.19;5136543;27;20204;-80
2022/11/09 05:53:39;;;;;;;3.80;2.20;;;;;;;-145.69;100.00;52499.84;5135064;27;20193;-79
2022/11/09 05:56:07;;;;;;;4.80;2.17;;;;;;;-145.69;100.00;52480.03;5145297;27;20293;-80
2022/11/09 05:58:35;;;;;;;4.43;2.10;;;;;;;-145.69;100.00;52450.31;5139939;27;20233;-80
2022/11/09 06:01:03;;;;;;;5.45;2.70;;;;;;;-145.69;100.00;52489.94;5137538;27;20425;-80
2022/11/09 06:03:31;;;;;;;5.33;1.90;;;;;;;-145.69;100.00;52478.06;5139415;27;20192;-80
2022/11/09 06:06:01;;;;;;;2.93;2.10;;;;;;;-145.69;100.00;52472.13;5147401;27;20196;-80
2022/11/09 06:08:27;;;;;;;2.67;2.10;;;;;;;-145.69;100.00;52474.09;5149504;27;20253;-80
2022/11/09 06:10:58;;;;;;;3.00;1.93;;;;;;;-145.69;100.00;52468.16;5144175;27;20559;-81
2022/11/09 06:13:24;;;;;;;2.97;2.13;;;;;;;-145.69;100.00;52448.34;5141423;27;20196;-80
2022/11/09 06:15:53;;;;;;;4.07;2.43;;;;;;;-145.69;100.00;52472.13;5142088;27;20200;-81
2022/11/09 06:18:19;;;;;;;4.23;1.80;;;;;;;-145.69;100.00;52468.16;5142076;27;20311;-81
2022/11/09 06:20:52;;;;;;;3.77;1.87;;;;;;;-145.69;100.00;52468.16;5142167;27;20197;-81
2022/11/09 06:23:18;;;;;;;2.20;1.57;;;;;;;-145.69;100.00;52448.34;5141391;27;20711;-81
2022/11/09 06:25:49;;;;;;;2.87;1.97;;;;;;;-145.69;100.00;52491.91;5141222;27;20200;-81
2022/11/09 06:28:16;;;;;;;2.60;1.70;;;;;;;-145.69;100.00;52460.22;5144303;27;20308;-81
2022/11/09 06:30:42;;;;;;;2.23;1.80;;;;;;;-145.69;100.00;52484.00;5147091;27;20207;-81
2022/11/09 06:33:14;;;;;;;3.37;1.97;;;;;;;-145.69;100.00;52472.13;5146838;27;20566;-79
2022/11/09 06:35:43;;;;;;;6.50;2.00;;;;;;;-145.69;100.00;52476.06;5139013;27;20231;-81
2022/11/09 06:38:12;;;;;;;3.90;1.80;;;;;;;-145.69;100.00;52438.44;5136714;27;20228;-81
2022/11/09 06:40:39;;;;;;;3.40;1.70;;;;;;;-145.69;100.00;52426.56;5141931;27;20203;-82
2022/11/09 06:43:06;;;;;;;4.57;2.10;;;;;;;-145.69;100.00;52464.19;5141734;27;20192;-82
2022/11/09 06:45:38;;;;;;;3.07;1.70;;;;;;;-145.69;100.00;52440.44;5143915;27;20718;-81
2022/11/09 06:48:05;;;;;;;4.43;1.80;;;;;;;-145.69;100.00;52452.31;5143911;27;20192;-80
2022/11/09 06:50:33;;;;;;;3.83;1.90;;;;;;;-145.69;100.00;52452.31;5144511;27;20264;-80
2022/11/09 06:53:01;;;;;;;8.93;2.13;;;;;;;-145.69;100.00;52460.22;5139619;27;20681;-80
2022/11/09 06:55:31;;;;;;;5.30;2.47;;;;;;;-145.69;100.00;52416.66;5141919;27;20220;-81
2022/11/09 06:57:59;;;;;;;2.50;1.40;;;;;;;-145.69;100.00;52454.28;5141436;27;20220;-80
2022/11/09 07:00:29;;;;;;;4.70;1.33;;;;;;;-145.69;100.00;52450.31;5139804;27;20199;-82
2022/11/09 07:02:56;;;;;;;5.23;2.00;;;;;;;-145.69;100.00;52464.19;5139464;27;20205;-80
2022/11/09 07:05:22;;;;;;;4.60;1.80;;;;;;;-145.69;100.00;52464.19;5140275;27;20192;-81
2022/11/09 07:07:49;;;;;;;3.20;1.23;;;;;;;-145.69;100.00;52472.13;5141124;27;20197;-81
2022/11/09 07:10:16;;;;;;;2.30;1.70;;;;;;;-145.69;100.00;52452.31;5142031;27;20563;-81
2022/11/09 07:12:44;;;;;;;3.30;1.50;;;;;;;-145.69;100.00;52448.34;5144983;27;20197;-80
2022/11/09 07:15:14;;;;;;;3.20;1.70;;;;;;;-145.69;100.00;52472.13;5142535;27;20648;-81
2022/11/09 07:17:41;;;;;;;1.60;1.23;;;;;;;-145.69;100.00;52446.38;5138913;27;20671;-80
2022/11/09 07:20:14;;;;;;;2.07;1.40;;;;;;;-145.69;100.00;52484.00;5137078;27;20189;-81
2022/11/09 07:22:41;;;;;;;1.80;1.23;;;;;;;-145.69;100.00;52434.47;5138742;27;20196;-80
2022/11/09 07:25:09;;;;;;;4.83;1.73;;;;;;;-145.69;100.00;52450.31;5136682;27;20207;-80
2022/11/09 07:27:36;;;;;;;2.67;1.70;;;;;;;-145.69;100.00;52446.38;5137227;27;20203;-80
2022/11/09 07:30:05;;;;;;;5.00;1.37;;;;;;;-145.69;100.00;52428.53;5140893;27;20204;-80
2022/11/09 07:32:33;;;;;;;6.43;1.70;;;;;;;-145.69;100.00;52458.25;5138353;27;20200;-80
2022/11/09 07:35:00;;;;;;;2.80;1.27;;;;;;;-145.69;100.00;52460.22;5141845;27;20698;-80
2022/11/09 07:37:26;;;;;;;5.72;1.63;;;;;;;-145.69;100.00;52446.38;5140775;27;20468;-81
2022/11/09 07:39:54;;;;;;;2.60;1.40;;;;;;;-145.69;100.00;52446.38;5140977;27;20545;-80
2022/11/09 07:42:21;;;;;;;4.27;1.43;;;;;;;-145.69;100.00;52432.50;5140388;27;20201;-81
2022/11/09 07:44:48;;;;;;;2.42;1.30;;;;;;;-145.69;100.00;52440.44;5140959;27;20208;-81
2022/11/09 07:47:20;;;;;;;5.50;1.30;;;;;;;-145.69;100.00;52452.31;5138080;27;20279;-81
2022/11/09 07:49:48;;;;;;;2.23;1.50;;;;;;;-145.69;100.00;52476.06;5133896;27;20671;-81
2022/11/09 07:52:15;;;;;;;4.03;1.43;;;;;;;-145.69;100.00;52408.75;5132198;27;20204;-81
2022/11/09 07:54:41;;;;;;;2.50;1.23;;;;;;;-145.69;100.00;52450.31;5139002;27;20214;-82
2022/11/09 07:57:08;;;;;;;3.50;1.50;;;;;;;-145.69;100.00;52440.44;5138273;27;20197;-80
2022/11/09 07:59:34;;;;;;;5.17;1.30;;;;;;;-145.69;100.00;52440.44;5137434;27;20564;-80
2022/11/09 08:02:01;;;;;;;3.73;1.50;;;;;;;-145.69;100.00;52432.50;5136868;27;20197;-80
2022/11/09 08:04:29;;;;;;;3.93;1.30;;;;;;;-145.69;100.00;52456.28;5136419;27;20207;-80
2022/11/09 08:06:55;;;;;;;6.17;1.60;;;;;;;-145.69;100.00;52444.38;5137641;27;20208;-79
2022/11/09 08:09:22;;;;;;;2.27;1.60;;;;;;;-145.69;100.00;52462.22;5137133;28;20700;-80
2022/11/09 08:11:48;;;;;;;5.20;1.80;;;;;;;-145.69;100.00;52420.63;5137839;28;20193;-80
2022/11/09 08:14:15;;;;;;;4.00;1.70;;;;;;;-145.69;100.00;52472.13;5137821;27;20200;-80
2022/11/09 08:16:41;;;;;;;3.20;1.53;;;;;;;-145.69;100.00;52466.16;5138224;28;20205;-80
2022/11/09 08:19:09;;;;;;;4.93;1.93;;;;;;;-145.69;100.00;52485.97;5138035;27;20224;-80
2022/11/09 08:21:37;;;;;;;4.30;1.67;;;;;;;-145.69;100.00;52406.75;5138643;28;20666;-79
2022/11/09 08:24:05;;;;;;;4.37;1.50;;;;;;;-145.69;100.00;52434.47;5138320;28;20563;-80
2022/11/09 08:26:32;;;;;;;3.63;1.83;;;;;;;-145.69;100.00;52440.44;5138441;28;20222;-81
2022/11/09 08:28:58;;;;;;;5.50;2.23;;;;;;;-145.69;100.00;52462.22;5146058;28;20223;-81
2022/11/09 08:31:25;;;;;;;4.50;1.70;;;;;;;-145.69;100.00;52456.28;5145811;28;20207;-80
2022/11/09 08:33:51;;;;;;;3.63;1.50;;;;;;;-145.69;100.00;52456.28;5142189;27;20232;-80
2022/11/09 08:36:18;;;;;;;5.03;1.75;;;;;;;-145.69;100.00;52420.63;5146180;27;20195;-80
2022/11/09 08:38:46;;;;;;;3.30;1.70;;;;;;;-145.69;100.00;52444.38;5137154;27;20235;-80
2022/11/09 08:41:13;;;;;;;3.67;1.55;;;;;;;-145.69;100.00;52470.13;5134048;27;20193;-80
2022/11/09 08:43:40;;;;;;;4.60;1.60;;;;;;;-145.69;100.00;52440.44;5138309;28;20207;-81
2022/11/09 08:46:06;;;;;;;3.77;1.80;;;;;;;-145.69;100.00;52440.44;5143806;27;20212;-80
2022/11/09 08:48:33;;;;;;;5.20;1.73;;;;;;;-145.69;100.00;52456.28;5141611;27;20316;-80
2022/11/09 08:51:00;;;;;;;3.60;1.60;;;;;;;-145.69;100.00;52460.22;5139827;27;20197;-81
2022/11/09 08:53:28;;;;;;;4.30;1.75;;;;;;;-145.69;100.00;52448.34;5138565;27;20201;-81
2022/11/09 08:55:56;;;;;;;3.30;1.60;;;;;;;-145.69;100.00;52452.31;5140836;28;20196;-81
2022/11/09 08:58:23;;;;;;;6.65;1.80;;;;;;;-145.69;100.00;52474.09;5145339;28;20221;-81
2022/11/09 09:00:50;;;;;;;6.27;2.80;;;;;;;-145.69;100.00;52474.09;5136439;27;20185;-79
2022/11/09 09:03:17;;;;;;;5.60;1.90;;;;;;;-145.69;100.00;52464.19;5129280;27;20205;-79
2022/11/09 09:05:43;;;;;;;4.00;2.20;;;;;;;-145.69;100.00;52444.38;5118153;28;20212;-79
2022/11/09 09:08:11;;;;;;;4.00;2.00;;;;;;;-145.69;100.00;52448.34;5121429;28;20202;-80
2022/11/09 09:10:39;;;;;;;3.93;2.30;;;;;;;-145.69;100.00;52458.25;5120427;28;20198;-80
2022/11/09 09:13:07;;;;;;;3.10;1.90;;;;;;;-145.69;100.00;52460.22;5120279;28;20654;-80
2022/11/09 09:15:34;;;;;;;4.00;1.77;;;;;;;-145.69;100.00;52420.63;5139600;27;20283;-80
2022/11/09 09:18:01;;;;;;;3.63;2.03;;;;;;;-145.69;100.00;52434.47;5145132;27;20204;-80
2022/11/09 09:20:28;;;;;;;4.50;2.20;;;;;;;-145.69;100.00;52440.44;5144564;27;20551;-80
2022/11/09 09:22:57;;;;;;;2.93;1.93;;;;;;;-145.69;100.00;52418.63;5145571;27;20200;-80
2022/11/09 09:25:24;;;;;;;5.47;2.43;;;;;;;-145.69;100.00;52444.38;5149656;27;20208;-80
2022/11/09 09:27:51;;;;;;;2.97;1.77;;;;;;;-145.69;100.00;52452.31;5144237;27;20201;-80
2022/11/09 09:30:19;;;;;;;3.40;1.70;;;;;;;-145.69;100.00;52472.13;5136900;27;20562;-80
2022/11/09 09:32:45;;;;;;;3.07;1.70;;;;;;;-145.69;100.00;52472.13;5137630;27;20206;-80
2022/11/09 09:35:12;;;;;;;4.07;1.37;;;;;;;-145.69;100.00;52456.28;5137637;27;20262;-80
2022/11/09 09:37:38;;;;;;;2.63;1.53;;;;;;;-145.69;100.00;52440.44;5138420;27;20647;-80
2022/11/09 09:40:06;;;;;;;2.53;1.75;;;;;;;-145.69;100.00;52428.53;5137822;27;20230;-79
2022/11/09 09:42:36;;;;;;;3.45;1.70;;;;;;;-145.69;100.00;52434.47;5136894;27;20188;-79
2022/11/09 09:45:05;;;;;;;4.47;1.87;;;;;;;-145.69;100.00;52440.44;5136900;27;20250;-80
2022/11/09 09:47:46;;;;;;;2.70;1.58;;;;;;;-145.69;100.00;52444.38;5136799;27;20207;-80
2022/11/09 09:50:18;;;;;;;2.30;1.30;;;;;;;-145.69;100.00;52432.50;5134229;27;20200;-80
2022/11/09 09:52:51;;;;;;;2.15;1.20;;;;;;;-145.69;100.00;52430.53;5117416;28;20208;-80
2022/11/09 09:55:24;;;;;;;3.63;1.10;;;;;;;-145.69;100.00;52392.91;5117959;28;20812;-80
2022/11/09 09:57:53;;;;;;;1.88;0.90;;;;;;;-145.69;100.00;52426.56;5117836;28;20205;-80
2022/11/09 10:00:24;;;;;;;2.83;1.35;;;;;;;-145.69;100.00;52422.59;5127157;27;20220;-80
2022/11/09 10:02:53;;;;;;;2.25;1.65;;;;;;;-145.69;100.00;52434.47;5138418;27;20193;-80
2022/11/09 10:05:26;;;;;;;3.17;1.17;;;;;;;-145.69;100.00;52428.53;5138942;27;20200;-81
2022/11/09 10:08:01;;;;;;;2.78;1.45;;;;;;;-145.69;100.00;52448.34;5138892;27;20726;-80
2022/11/09 10:10:43;;;;;;;1.63;1.20;;;;;;;-145.69;100.00;52396.84;5139094;27;20252;-81
2022/11/09 10:13:31;;;;;;;2.90;1.38;;;;;;;-145.69;100.00;52424.59;5137150;27;20205;-82
2022/11/09 10:16:05;;;;;;;2.30;1.50;;;;;;;-145.69;100.00;52424.59;5134992;27;20660;-81
2022/11/09 10:18:42;;;;;;;2.05;1.10;;;;;;;-145.69;100.00;52416.66;5136895;27;20694;-81
2022/11/09 10:21:24;;;;;;;2.38;1.00;;;;;;;-145.69;100.00;52438.44;5139119;27;20600;-80
2022/11/09 10:24:03;;;;;;;1.95;1.20;;;;;;;-145.69;100.00;52454.28;5138192;27;20200;-80
2022/11/09 10:26:38;;;;;;;2.42;1.63;;;;;;;-145.69;100.00;52448.34;5139113;27;20677;-80
2022/11/09 10:29:18;;;;;;;2.80;1.25;;;;;;;-145.69;100.00;52398.84;5135773;27;20638;-81
2022/11/09 10:31:47;;;;;;;1.75;1.02;;;;;;;-145.69;100.00;52400.81;5137051;27;20204;-81
2022/11/09 10:34:20;;;;;;;2.30;1.00;;;;;;;-145.69;100.00;52428.53;5136075;27;20722;-81
2022/11/09 10:36:52;;;;;;;1.80;1.25;;;;;;;-145.69;100.00;52410.72;5137360;27;20666;-81
2022/11/09 10:39:22;;;;;;;1.23;1.00;;;;;;;-145.69;100.00;52414.69;5137345;27;20231;-80
2022/11/09 10:41:49;;;;;;;1.30;0.80;;;;;;;-145.69;100.00;52420.63;5135263;27;20797;-81
2022/11/09 10:44:17;;;;;;;1.60;0.77;;;;;;;-145.69;100.00;52444.38;5136336;27;20264;-81
2022/11/09 10:47:08;;;;;;;4.40;1.13;;;;;;;-145.69;100.00;52432.50;5136117;27;20257;-81
2022/11/09 10:49:36;;;;;;;1.00;0.80;;;;;;;-145.69;100.00;52418.63;5136013;27;20298;-80
2022/11/09 10:52:04;;;;;;;2.05;0.80;;;;;;;-145.69;100.00;52379.03;5135520;27;20478;-81
2022/11/09 10:54:33;;;;;;;1.40;1.00;;;;;;;-145.69;100.00;52398.84;5135938;27;20279;-81
2022/11/09 10:57:09;;;;;;;1.00;0.90;;;;;;;-145.69;100.00;52388.94;5137394;27;20197;-81
2022/11/09 10:59:44;;;;;;;2.55;1.08;;;;;;;-145.69;100.00;52384.97;5137328;27;20230;-82
2022/11/09 11:02:40;;;;;;;2.33;0.82;;;;;;;-145.69;100.00;52383.00;5136578;27;20654;-82
2022/11/09 11:05:29;;;;;;;0.85;0.70;;;;;;;-145.69;100.00;52418.63;5136656;27;20208;-81
2022/11/09 11:07:58;;;;;;;3.10;0.73;;;;;;;-145.69;100.00;52408.75;5135089;27;20207;-82
2022/11/09 11:10:25;;;;;;;1.67;0.70;;;;;;;-145.69;100.00;52408.75;5134714;27;20200;-82
2022/11/09 11:13:17;;;;;;;1.75;0.70;;;;;;;-145.69;100.00;52418.63;5119173;27;20727;-83
2022/11/09 11:15:44;;;;;;;3.25;0.70;;;;;;;-145.69;100.00;52416.66;5117923;27;20216;-80
2022/11/09 11:18:16;;;;;;;0.80;0.70;;;;;;;-145.69;100.00;52444.38;5133679;27;20729;-82